Time;durP1;ratioP1;P1;durP2;ratioP2;P2;SDS_P1;SDS_P2;PMS_P1;PMS_P2;Temp;Humidity;BMP_temperature;BMP_pressure;BME280_temperature;BME280_humidity;BME280_pressure;Samples;Min_cycle;Max_cycle;Signal;HPM_P1;HPM_P2
2023/09/20 00:01:50;;;;;;;5.90;3.60;;;15.90;29.40;;;;;;4982222;28;20902;-68
2023/09/20 00:04:17;;;;;;;6.87;3.60;;;16.00;29.70;;;;;;4983484;28;20485;-68
2023/09/20 00:06:43;;;;;;;6.50;3.43;;;16.00;29.70;;;;;;4984383;28;20468;-68
2023/09/20 00:09:10;;;;;;;6.90;3.80;;;16.00;29.90;;;;;;4983634;28;21205;-68
2023/09/20 00:11:37;;;;;;;6.10;3.77;;;16.00;30.10;;;;;;4975769;28;20526;-68
2023/09/20 00:14:04;;;;;;;9.10;3.90;;;16.00;30.30;;;;;;4980583;28;20491;-68
2023/09/20 00:16:30;;;;;;;5.10;3.20;;;16.00;30.30;;;;;;4987845;28;20464;-68
2023/09/20 00:18:58;;;;;;;7.10;3.63;;;16.00;30.40;;;;;;4986529;28;20484;-68
2023/09/20 00:21:24;;;;;;;7.50;4.33;;;16.00;30.50;;;;;;4988113;28;20477;-68
2023/09/20 00:23:51;;;;;;;7.57;4.50;;;16.00;30.60;;;;;;4987254;28;20480;-68
2023/09/20 00:26:18;;;;;;;6.73;3.73;;;16.00;30.60;;;;;;4989147;28;20241;-68
2023/09/20 00:28:48;;;;;;;6.27;4.00;;;16.00;30.70;;;;;;4987802;28;20899;-68
2023/09/20 00:31:15;;;;;;;8.10;4.27;;;16.00;30.70;;;;;;4983982;28;20896;-68
2023/09/20 00:33:41;;;;;;;6.83;4.00;;;16.00;30.60;;;;;;4986601;28;20496;-68
2023/09/20 00:36:10;;;;;;;7.70;4.60;;;15.90;30.60;;;;;;4988927;28;20481;-68
2023/09/20 00:38:36;;;;;;;7.77;3.97;;;15.90;30.70;;;;;;4985558;28;20481;-68
2023/09/20 00:41:05;;;;;;;7.10;3.70;;;15.90;30.70;;;;;;4984218;28;20470;-68
2023/09/20 00:43:32;;;;;;;10.13;4.10;;;15.90;30.80;;;;;;4988668;28;20488;-68
2023/09/20 00:46:00;;;;;;;8.03;4.20;;;15.90;30.80;;;;;;4984855;28;20469;-69
2023/09/20 00:48:29;;;;;;;7.50;3.93;;;15.90;30.80;;;;;;4989387;28;20823;-68
2023/09/20 00:50:56;;;;;;;5.47;3.60;;;15.80;30.70;;;;;;4984093;28;21003;-68
2023/09/20 00:53:25;;;;;;;6.10;3.70;;;15.80;30.90;;;;;;4989372;28;20513;-69
2023/09/20 00:55:51;;;;;;;7.40;4.23;;;15.80;30.80;;;;;;4980986;28;20946;-69
2023/09/20 00:58:20;;;;;;;7.77;4.03;;;15.80;30.80;;;;;;4985837;28;20542;-69
2023/09/20 01:00:47;;;;;;;8.60;4.37;;;15.70;30.70;;;;;;4984625;28;20473;-68
2023/09/20 01:03:18;;;;;;;5.90;3.70;;;15.60;30.60;;;;;;4983607;28;20826;-68
2023/09/20 01:05:47;;;;;;;7.50;3.90;;;15.70;30.60;;;;;;4991568;28;20985;-68
2023/09/20 01:08:17;;;;;;;9.30;4.60;;;15.60;30.30;;;;;;4985091;28;20476;-68
2023/09/20 01:10:46;;;;;;;5.60;3.40;;;15.60;30.30;;;;;;4986277;28;21012;-68
2023/09/20 01:13:15;;;;;;;6.93;3.60;;;15.60;30.40;;;;;;4985357;28;20592;-68
2023/09/20 01:15:42;;;;;;;7.50;3.70;;;15.60;30.40;;;;;;4988118;28;20469;-68
2023/09/20 01:18:09;;;;;;;6.90;3.93;;;15.60;30.50;;;;;;4986243;28;20504;-68
2023/09/20 01:20:39;;;;;;;7.00;4.57;;;15.60;30.70;;;;;;4985241;28;20472;-69
2023/09/20 01:23:07;;;;;;;6.33;3.70;;;15.60;30.70;;;;;;4985340;28;20475;-69
2023/09/20 01:25:36;;;;;;;10.70;4.17;;;15.60;30.50;;;;;;4985458;28;20469;-69
2023/09/20 01:28:05;;;;;;;6.27;4.27;;;15.60;30.70;;;;;;4980008;28;20559;-68
2023/09/20 01:30:32;;;;;;;6.67;4.00;;;15.60;30.80;;;;;;4988547;28;20465;-68
2023/09/20 01:33:01;;;;;;;9.50;5.20;;;15.60;31.10;;;;;;4987192;28;20460;-68
2023/09/20 01:35:30;;;;;;;8.00;4.60;;;15.60;31.20;;;;;;4988438;28;20551;-69
2023/09/20 01:37:58;;;;;;;8.30;4.40;;;15.70;31.50;;;;;;4989246;28;20469;-69
2023/09/20 01:40:28;;;;;;;7.23;3.77;;;15.70;31.50;;;;;;4987063;28;20489;-69
2023/09/20 01:42:57;;;;;;;7.50;4.63;;;15.70;31.60;;;;;;4988315;28;20492;-69
2023/09/20 01:45:26;;;;;;;6.77;4.50;;;15.70;31.60;;;;;;4986213;28;20471;-69
2023/09/20 01:47:54;;;;;;;7.17;3.80;;;15.60;31.80;;;;;;4986695;28;20484;-69
2023/09/20 01:50:24;;;;;;;6.97;3.93;;;15.70;31.60;;;;;;4988444;28;20464;-69
2023/09/20 01:52:53;;;;;;;5.90;4.10;;;15.60;31.60;;;;;;4986654;28;20491;-68
2023/09/20 01:55:21;;;;;;;8.67;5.10;;;15.60;31.60;;;;;;4987616;28;21031;-69
2023/09/20 01:57:50;;;;;;;7.80;4.00;;;15.60;31.50;;;;;;4981344;28;20600;-69
2023/09/20 02:00:18;;;;;;;7.40;3.93;;;15.60;31.50;;;;;;4984630;28;20477;-69
2023/09/20 02:02:45;;;;;;;7.10;4.37;;;15.60;31.40;;;;;;4984482;28;20481;-69
2023/09/20 02:05:17;;;;;;;6.20;3.53;;;15.60;31.50;;;;;;4986261;28;20496;-69
2023/09/20 02:07:45;;;;;;;6.87;4.50;;;15.60;31.40;;;;;;4979773;28;20520;-69
2023/09/20 02:10:11;;;;;;;8.03;4.90;;;15.60;31.70;;;;;;4987456;28;20457;-69
2023/09/20 02:12:38;;;;;;;7.57;4.60;;;15.60;31.90;;;;;;4984465;28;22330;-69
2023/09/20 02:15:09;;;;;;;6.20;4.57;;;15.60;31.80;;;;;;4985693;28;20488;-69
2023/09/20 02:17:36;;;;;;;7.50;4.23;;;15.60;31.90;;;;;;4983830;28;20484;-69
2023/09/20 02:20:08;;;;;;;7.10;3.73;;;15.60;31.90;;;;;;4983100;28;20489;-69
2023/09/20 02:22:37;;;;;;;7.00;5.10;;;15.70;32.00;;;;;;4987569;28;20475;-69
2023/09/20 02:25:06;;;;;;;6.20;4.20;;;15.70;32.00;;;;;;4984880;28;20539;-69
2023/09/20 02:27:34;;;;;;;8.10;4.90;;;15.60;31.90;;;;;;4985509;28;20511;-69
2023/09/20 02:30:00;;;;;;;7.00;5.00;;;15.50;32.00;;;;;;4984558;28;20840;-69
2023/09/20 02:32:30;;;;;;;6.67;4.93;;;15.50;32.10;;;;;;4986971;28;20484;-69
2023/09/20 02:34:59;;;;;;;7.10;4.80;;;15.50;32.20;;;;;;4987665;28;20571;-69
2023/09/20 02:37:26;;;;;;;7.73;4.20;;;15.50;32.10;;;;;;4983522;28;20468;-69
2023/09/20 02:39:52;;;;;;;8.37;5.97;;;15.50;32.20;;;;;;4982373;28;20567;-69
2023/09/20 02:42:22;;;;;;;7.90;4.70;;;15.50;32.20;;;;;;4988470;28;20475;-69
2023/09/20 02:44:50;;;;;;;6.50;5.17;;;15.40;32.30;;;;;;4980891;28;20542;-69
2023/09/20 02:47:18;;;;;;;8.90;5.13;;;15.40;32.20;;;;;;4985771;28;20614;-69
2023/09/20 02:49:48;;;;;;;7.40;5.20;;;15.40;32.40;;;;;;4984144;28;20462;-69
2023/09/20 02:52:15;;;;;;;9.90;5.77;;;15.40;32.40;;;;;;4985642;28;20589;-69
2023/09/20 02:54:43;;;;;;;6.37;4.80;;;15.40;32.50;;;;;;4978510;28;20507;-69
2023/09/20 02:57:11;;;;;;;6.63;4.83;;;15.30;32.30;;;;;;4998774;23;20491;-65
2023/09/20 02:59:38;;;;;;;8.63;5.33;;;15.30;32.00;;;;;;5010466;28;20491;-65
2023/09/20 03:02:05;;;;;;;8.73;5.00;;;15.30;32.00;;;;;;5007950;28;21026;-65
2023/09/20 03:04:31;;;;;;;7.20;5.50;;;15.20;31.90;;;;;;5005764;28;20595;-65
2023/09/20 03:07:01;;;;;;;8.57;5.23;;;15.20;31.90;;;;;;5007593;28;20479;-68
2023/09/20 03:09:32;;;;;;;6.77;4.83;;;15.20;32.10;;;;;;5005729;28;20474;-66
2023/09/20 03:11:59;;;;;;;9.40;6.00;;;15.10;32.10;;;;;;5006097;28;20555;-66
2023/09/20 03:14:26;;;;;;;7.80;5.23;;;15.10;32.10;;;;;;5000609;28;21421;-66
2023/09/20 03:16:52;;;;;;;7.60;5.40;;;15.10;32.10;;;;;;5003332;28;20464;-66
2023/09/20 03:19:20;;;;;;;9.60;6.00;;;15.10;32.20;;;;;;5006600;28;20480;-66
2023/09/20 03:21:47;;;;;;;8.30;5.90;;;15.00;32.20;;;;;;5003647;28;20468;-66
2023/09/20 03:24:15;;;;;;;8.80;5.70;;;15.00;32.40;;;;;;5007049;28;20530;-66
2023/09/20 03:26:44;;;;;;;7.93;5.23;;;15.00;32.40;;;;;;5005751;28;20463;-66
2023/09/20 03:29:10;;;;;;;7.80;5.40;;;15.00;32.50;;;;;;5004991;28;20467;-66
2023/09/20 03:31:38;;;;;;;9.33;6.87;;;14.90;32.80;;;;;;5001833;28;20478;-66
2023/09/20 03:34:05;;;;;;;7.90;5.60;;;14.90;32.70;;;;;;5002264;28;20574;-66
2023/09/20 03:36:32;;;;;;;10.97;5.80;;;14.90;32.80;;;;;;5002818;28;20892;-67
2023/09/20 03:38:59;;;;;;;8.13;5.47;;;14.80;32.50;;;;;;5004054;28;20498;-67
2023/09/20 03:41:27;;;;;;;8.83;6.23;;;14.80;32.30;;;;;;5003945;28;20543;-67
2023/09/20 03:43:56;;;;;;;6.40;4.70;;;14.70;32.30;;;;;;5004853;28;21003;-66
2023/09/20 03:46:22;;;;;;;9.50;5.80;;;14.60;32.40;;;;;;5002043;28;20496;-66
2023/09/20 03:48:49;;;;;;;7.90;5.67;;;14.60;32.50;;;;;;5002694;28;20463;-66
2023/09/20 03:51:16;;;;;;;11.33;5.90;;;14.50;33.00;;;;;;5005766;28;20470;-67
2023/09/20 03:53:43;;;;;;;10.17;5.47;;;14.50;33.00;;;;;;5007056;28;20519;-69
2023/09/20 03:56:11;;;;;;;9.20;6.87;;;14.50;33.30;;;;;;5009064;28;21010;-69
2023/09/20 03:58:39;;;;;;;9.57;6.70;;;14.50;33.50;;;;;;5010786;28;20464;-68
2023/09/20 04:01:07;;;;;;;9.73;6.87;;;14.60;33.90;;;;;;5010126;28;20480;-67
2023/09/20 04:03:35;;;;;;;8.87;6.00;;;14.70;34.10;;;;;;5010030;28;20482;-68
2023/09/20 04:06:02;;;;;;;9.63;7.10;;;14.70;34.10;;;;;;5010409;28;20517;-68
2023/09/20 04:08:30;;;;;;;9.70;5.67;;;14.80;33.80;;;;;;5009281;28;20562;-68
2023/09/20 04:10:57;;;;;;;8.50;6.17;;;14.80;33.70;;;;;;5004968;28;20466;-68
2023/09/20 04:13:24;;;;;;;9.53;5.47;;;14.80;33.70;;;;;;5003578;28;20591;-68
2023/09/20 04:15:52;;;;;;;7.97;6.10;;;14.90;33.70;;;;;;5007756;28;20979;-69
2023/09/20 04:18:19;;;;;;;8.93;6.47;;;14.80;33.60;;;;;;5010612;28;20463;-69
2023/09/20 04:20:47;;;;;;;7.10;5.20;;;14.80;33.60;;;;;;5011173;28;20475;-69
2023/09/20 04:23:13;;;;;;;9.57;5.67;;;14.80;33.60;;;;;;5012695;28;20464;-69
2023/09/20 04:25:39;;;;;;;8.43;6.40;;;14.80;33.60;;;;;;5009869;28;20482;-69
2023/09/20 04:28:07;;;;;;;7.23;5.70;;;14.80;33.70;;;;;;5011745;28;20467;-69
2023/09/20 04:30:34;;;;;;;10.37;6.20;;;14.80;33.70;;;;;;5007780;28;20472;-68
2023/09/20 04:33:04;;;;;;;8.00;5.90;;;14.80;33.60;;;;;;5010851;28;20486;-68
2023/09/20 04:35:31;;;;;;;8.90;5.73;;;14.70;33.90;;;;;;5007306;28;20487;-68
2023/09/20 04:37:58;;;;;;;8.77;5.50;;;14.70;33.80;;;;;;5010042;28;20498;-68
2023/09/20 04:40:25;;;;;;;10.43;6.70;;;14.70;33.90;;;;;;5010251;28;20480;-69
2023/09/20 04:42:51;;;;;;;11.37;6.20;;;14.70;34.20;;;;;;5005938;28;20469;-69
2023/09/20 04:45:19;;;;;;;9.97;6.60;;;14.70;34.10;;;;;;5007648;28;20972;-69
2023/09/20 04:47:46;;;;;;;10.10;6.00;;;14.70;34.10;;;;;;5008488;28;20459;-69
2023/09/20 04:50:14;;;;;;;8.40;5.97;;;14.60;34.40;;;;;;5010591;28;20531;-69
2023/09/20 04:52:41;;;;;;;8.13;5.43;;;14.60;34.30;;;;;;5002697;28;20553;-68
2023/09/20 04:55:10;;;;;;;9.10;5.90;;;14.60;34.30;;;;;;5009902;28;20488;-69
2023/09/20 04:57:37;;;;;;;8.40;5.50;;;14.60;34.20;;;;;;5008782;28;20455;-69
2023/09/20 05:00:07;;;;;;;8.73;5.87;;;14.50;34.30;;;;;;5010733;28;20483;-69
2023/09/20 05:02:34;;;;;;;8.33;5.77;;;14.50;34.50;;;;;;5000074;28;20476;-69
2023/09/20 05:05:01;;;;;;;9.50;7.13;;;14.50;34.70;;;;;;5005502;28;20483;-68
2023/09/20 05:07:29;;;;;;;9.37;6.40;;;14.50;34.70;;;;;;5009287;28;20944;-69
2023/09/20 05:09:56;;;;;;;9.53;6.50;;;14.50;34.80;;;;;;5006372;28;20457;-69
2023/09/20 05:12:22;;;;;;;9.97;7.27;;;14.50;34.70;;;;;;5010205;28;20464;-68
2023/09/20 05:14:50;;;;;;;8.70;6.60;;;14.50;34.90;;;;;;5009648;28;20483;-68
2023/09/20 05:17:16;;;;;;;6.73;5.20;;;14.60;35.00;;;;;;5010234;28;20542;-69
2023/09/20 05:19:43;;;;;;;10.53;5.53;;;14.60;35.00;;;;;;5009136;28;20992;-68
2023/09/20 05:22:12;;;;;;;7.60;5.40;;;14.70;34.90;;;;;;5007333;28;20487;-69
2023/09/20 05:24:40;;;;;;;8.10;5.47;;;14.70;34.70;;;;;;5007418;28;20567;-69
2023/09/20 05:27:07;;;;;;;7.40;4.93;;;14.90;34.40;;;;;;5009780;28;20475;-69
2023/09/20 05:29:34;;;;;;;7.93;5.33;;;15.00;34.20;;;;;;5006590;28;20456;-69
2023/09/20 05:32:01;;;;;;;8.73;5.33;;;15.10;34.00;;;;;;5008798;28;20499;-69
2023/09/20 05:34:28;;;;;;;6.67;4.83;;;15.40;33.20;;;;;;5004489;28;20503;-69
2023/09/20 05:36:55;;;;;;;6.60;4.57;;;15.70;32.30;;;;;;5004514;28;20460;-69
2023/09/20 05:39:22;;;;;;;8.47;5.10;;;16.10;30.70;;;;;;5004236;28;20507;-69
2023/09/20 05:41:50;;;;;;;8.03;4.00;;;16.60;29.60;;;;;;5009438;28;20563;-69
2023/09/20 05:44:18;;;;;;;7.53;4.80;;;17.30;27.20;;;;;;5007694;28;20484;-68
2023/09/20 05:46:46;;;;;;;8.83;4.23;;;18.00;25.20;;;;;;5007744;28;20667;-68
2023/09/20 05:49:13;;;;;;;5.40;3.80;;;18.60;23.50;;;;;;5005304;28;20456;-69
2023/09/20 05:51:40;;;;;;;7.10;3.40;;;19.10;22.00;;;;;;5009518;28;20460;-69
2023/09/20 05:54:07;;;;;;;6.83;3.50;;;19.40;20.10;;;;;;5008243;28;20575;-69
2023/09/20 05:56:34;;;;;;;5.97;3.10;;;19.70;19.40;;;;;;5009383;28;20463;-69
2023/09/20 05:59:04;;;;;;;5.70;3.20;;;19.90;18.50;;;;;;5008811;28;20463;-69
2023/09/20 06:01:32;;;;;;;5.80;3.17;;;20.10;18.20;;;;;;5006368;28;20483;-69
2023/09/20 06:04:01;;;;;;;4.80;2.80;;;20.20;17.80;;;;;;5004446;28;20484;-70
2023/09/20 06:06:30;;;;;;;5.50;3.10;;;20.40;17.90;;;;;;5004882;28;20472;-70
2023/09/20 06:08:57;;;;;;;5.43;3.00;;;20.60;16.50;;;;;;5009528;28;20480;-69
2023/09/20 06:11:24;;;;;;;6.47;2.97;;;20.70;16.40;;;;;;5004316;28;20449;-69
2023/09/20 06:13:51;;;;;;;5.07;3.03;;;20.80;16.10;;;;;;5009743;28;21071;-69
2023/09/20 06:16:20;;;;;;;7.37;3.63;;;20.90;15.00;;;;;;5011134;28;20912;-69
2023/09/20 06:18:48;;;;;;;7.13;3.50;;;21.00;14.80;;;;;;5005699;28;20514;-69
2023/09/20 06:21:17;;;;;;;5.77;3.17;;;21.10;14.30;;;;;;5006622;28;20491;-70
2023/09/20 06:23:44;;;;;;;6.63;3.80;;;21.40;13.70;;;;;;5006790;28;20502;-70
2023/09/20 06:26:12;;;;;;;5.10;3.10;;;21.90;12.30;;;;;;5005137;28;20468;-69
2023/09/20 06:28:40;;;;;;;5.37;3.20;;;22.40;10.80;;;;;;5005973;28;21207;-69
2023/09/20 06:31:07;;;;;;;6.30;3.37;;;22.70;10.10;;;;;;5008066;28;20476;-70
2023/09/20 06:33:36;;;;;;;5.40;3.17;;;22.90;9.80;;;;;;5004952;28;20490;-70
2023/09/20 06:36:04;;;;;;;8.67;3.90;;;23.10;9.30;;;;;;5008528;28;20947;-70
2023/09/20 06:38:34;;;;;;;9.17;3.37;;;23.40;8.30;;;;;;5008795;28;20459;-70
2023/09/20 06:41:01;;;;;;;5.40;3.47;;;24.20;6.90;;;;;;5002757;28;20472;-70
2023/09/20 06:43:28;;;;;;;5.03;3.00;;;25.10;4.80;;;;;;5007510;28;20480;-70
2023/09/20 06:45:56;;;;;;;4.80;3.07;;;26.10;2.90;;;;;;5008770;28;20545;-70
2023/09/20 06:48:23;;;;;;;7.10;3.20;;;27.10;1.20;;;;;;5003850;28;20981;-70
2023/09/20 06:50:52;;;;;;;5.00;2.70;;;28.20;1.00;;;;;;5007633;28;20999;-70
2023/09/20 06:53:20;;;;;;;5.83;3.10;;;29.60;1.00;;;;;;5004421;28;20845;-70
2023/09/20 06:55:48;;;;;;;6.93;3.50;;;30.70;1.00;;;;;;5008530;28;20475;-70
2023/09/20 06:58:15;;;;;;;5.80;2.87;;;31.80;1.00;;;;;;5005014;28;20473;-70
2023/09/20 07:00:41;;;;;;;6.13;3.10;;;32.90;1.00;;;;;;5007722;28;20487;-71
2023/09/20 07:03:09;;;;;;;5.00;2.70;;;34.00;1.00;;;;;;5007438;28;20467;-71
2023/09/20 07:05:36;;;;;;;6.60;3.50;;;34.90;1.00;;;;;;5005177;28;20482;-71
2023/09/20 07:08:05;;;;;;;6.60;3.63;;;36.00;1.00;;;;;;5004506;28;20474;-70
2023/09/20 07:10:32;;;;;;;4.10;2.53;;;37.00;1.00;;;;;;5005788;28;20448;-70
2023/09/20 07:12:59;;;;;;;4.97;2.93;;;38.00;1.00;;;;;;5008306;28;20455;-70
2023/09/20 07:15:28;;;;;;;6.27;3.10;;;38.80;1.00;;;;;;5004637;28;20452;-70
2023/09/20 07:18:11;;;;;;;4.80;2.57;;;39.70;1.00;;;;;;5004701;28;20539;-71
2023/09/20 07:20:39;;;;;;;4.40;2.80;;;40.40;1.00;;;;;;5008172;28;20877;-71
2023/09/20 07:23:08;;;;;;;4.30;2.70;;;41.40;1.00;;;;;;5005662;28;21218;-71
2023/09/20 07:25:36;;;;;;;5.40;2.67;;;42.00;1.00;;;;;;5001999;28;20539;-72
2023/09/20 07:28:04;;;;;;;7.77;3.10;;;42.70;1.00;;;;;;5011990;28;20448;-71
2023/09/20 07:30:34;;;;;;;5.50;2.43;;;43.20;1.00;;;;;;5011823;28;20979;-71
2023/09/20 07:33:02;;;;;;;4.47;2.67;;;43.80;1.00;;;;;;5010250;28;20474;-72
2023/09/20 07:35:37;;;;;;;4.23;2.50;;;44.20;1.00;;;;;;5008449;28;20490;-71
2023/09/20 07:38:05;;;;;;;4.80;2.57;;;44.60;1.00;;;;;;5012218;28;20856;-72
2023/09/20 07:40:35;;;;;;;5.30;2.30;;;45.00;1.00;;;;;;5004006;28;20483;-71
2023/09/20 07:43:04;;;;;;;4.50;2.20;;;45.50;1.00;;;;;;5010490;28;20460;-71
2023/09/20 07:45:35;;;;;;;3.67;2.13;;;46.00;1.00;;;;;;5011415;28;20526;-72
2023/09/20 07:48:11;;;;;;;3.87;2.40;;;46.40;1.00;;;;;;5012104;28;20903;-72
2023/09/20 07:50:41;;;;;;;3.87;2.53;;;46.90;1.00;;;;;;5005983;28;20459;-72
2023/09/20 07:53:09;;;;;;;4.50;2.20;;;47.40;1.00;;;;;;5008650;28;20452;-72
2023/09/20 07:55:45;;;;;;;8.70;2.70;;;47.90;1.00;;;;;;5008563;28;20543;-72
2023/09/20 07:58:13;;;;;;;3.90;2.37;;;48.30;1.00;;;;;;5008944;28;20459;-71
2023/09/20 08:00:42;;;;;;;3.70;2.40;;;48.60;1.00;;;;;;5010469;28;20491;-71
2023/09/20 08:03:10;;;;;;;5.37;2.57;;;48.90;1.00;;;;;;5008544;28;20451;-72
2023/09/20 08:05:37;;;;;;;3.70;1.90;;;49.40;1.00;;;;;;5006792;28;20492;-73
2023/09/20 08:08:04;;;;;;;5.00;2.10;;;49.70;1.00;;;;;;5008928;28;20474;-72
2023/09/20 08:10:33;;;;;;;3.50;2.10;;;49.90;1.00;;;;;;5011558;28;20448;-72
2023/09/20 08:13:01;;;;;;;3.60;2.10;;;49.90;1.00;;;;;;5009785;28;20491;-72
2023/09/20 08:15:28;;;;;;;3.43;2.00;;;50.20;1.00;;;;;;5010091;28;20507;-72
2023/09/20 08:20:40;;;;;;;3.87;2.30;;;50.80;1.00;;;;;;5005449;28;20962;-73
2023/09/20 09:01:44;;;;;;;3.83;2.00;;;50.50;1.00;;;;;;4984467;28;20977;-69
2023/09/20 09:04:13;;;;;;;3.70;2.10;;;51.10;1.00;;;;;;5000254;28;20479;-70
2023/09/20 09:06:40;;;;;;;3.60;2.00;;;51.40;1.00;;;;;;5009834;28;20513;-70
2023/09/20 09:09:08;;;;;;;3.30;1.93;;;51.50;1.00;;;;;;5006865;28;20464;-69
2023/09/20 09:11:35;;;;;;;7.00;1.90;;;52.00;1.00;;;;;;5007462;28;20814;-69
2023/09/20 09:14:01;;;;;;;6.67;1.93;;;52.10;1.00;;;;;;5007536;28;20494;-70
2023/09/20 09:16:32;;;;;;;3.77;1.60;;;52.30;1.00;;;;;;5009533;28;20467;-69
2023/09/20 09:19:00;;;;;;;4.30;1.67;;;52.40;1.00;;;;;;5010070;28;20944;-69
2023/09/20 09:21:27;;;;;;;4.40;1.73;;;52.50;1.00;;;;;;5009006;28;20483;-70
2023/09/20 09:23:54;;;;;;;3.87;1.70;;;52.40;1.00;;;;;;5009478;28;20475;-70
2023/09/20 09:26:21;;;;;;;4.53;1.57;;;52.60;1.00;;;;;;5009700;28;20979;-69
2023/09/20 09:28:48;;;;;;;5.30;1.70;;;52.10;1.00;;;;;;5008619;28;20459;-70
2023/09/20 09:31:16;;;;;;;4.33;1.57;;;52.40;1.00;;;;;;5009182;28;20525;-69
2023/09/20 09:33:43;;;;;;;2.87;1.27;;;52.30;1.00;;;;;;5006886;28;20553;-69
2023/09/20 09:36:13;;;;;;;4.23;1.60;;;52.40;1.00;;;;;;5009704;28;20546;-69
2023/09/20 09:38:40;;;;;;;4.00;1.23;;;51.90;1.00;;;;;;5006229;28;20459;-70
2023/09/20 09:41:08;;;;;;;5.23;1.23;;;51.10;1.00;;;;;;5006861;28;20515;-70
2023/09/20 09:43:36;;;;;;;2.80;1.10;;;50.60;1.00;;;;;;5003940;28;20546;-69
2023/09/20 09:46:08;;;;;;;4.20;1.70;;;50.30;1.00;;;;;;5008751;28;20479;-69
2023/09/20 09:48:35;;;;;;;3.93;1.60;;;49.70;1.00;;;;;;5003179;28;20459;-69
2023/09/20 09:51:04;;;;;;;3.03;1.20;;;49.70;1.00;;;;;;5008218;28;20459;-69
2023/09/20 09:53:34;;;;;;;3.57;1.30;;;50.10;1.00;;;;;;5007828;28;20541;-70
2023/09/20 09:56:04;;;;;;;3.73;1.60;;;50.50;1.00;;;;;;5008696;28;20530;-69
2023/09/20 09:58:31;;;;;;;3.47;1.20;;;50.50;1.00;;;;;;5007590;28;20464;-69
2023/09/20 10:00:58;;;;;;;3.80;1.20;;;50.10;1.00;;;;;;5008534;28;20476;-69
2023/09/20 10:03:29;;;;;;;5.13;1.37;;;49.80;1.00;;;;;;5009550;28;20510;-69
2023/09/20 10:06:09;;;;;;;3.17;1.10;;;49.90;1.00;;;;;;5008930;28;20521;-69
2023/09/20 10:08:39;;;;;;;3.80;1.33;;;50.00;1.00;;;;;;5004238;28;20460;-69
2023/09/20 10:11:06;;;;;;;3.73;1.50;;;50.10;1.00;;;;;;5008645;28;20479;-69
2023/09/20 10:13:35;;;;;;;7.03;1.50;;;50.30;1.00;;;;;;5006085;28;20474;-69
2023/09/20 10:16:10;;;;;;;3.60;1.50;;;50.30;1.00;;;;;;5008829;28;20456;-69
2023/09/20 10:18:54;;;;;;;5.50;1.47;;;50.20;1.00;;;;;;5004361;28;20522;-70
2023/09/20 10:21:24;;;;;;;3.10;1.27;;;50.10;1.00;;;;;;5008923;28;20479;-70
2023/09/20 10:23:57;;;;;;;3.43;1.50;;;50.00;1.00;;;;;;5006327;28;20533;-69
2023/09/20 10:26:26;;;;;;;3.60;1.23;;;49.60;1.00;;;;;;5007764;28;20460;-70
2023/09/20 10:28:57;;;;;;;3.20;1.50;;;49.10;1.00;;;;;;5008539;28;20451;-69
2023/09/20 10:31:24;;;;;;;7.97;1.70;;;49.10;1.00;;;;;;5008308;28;20460;-69
2023/09/20 10:33:55;;;;;;;3.77;1.80;;;48.50;1.00;;;;;;5008209;28;20475;-69
2023/09/20 10:36:25;;;;;;;3.40;1.60;;;48.10;1.00;;;;;;5004546;28;21249;-69
2023/09/20 10:39:21;;;;;;;4.03;1.40;;;48.00;1.00;;;;;;5006266;28;20467;-68
2023/09/20 10:41:50;;;;;;;3.53;1.43;;;48.00;1.00;;;;;;5004979;28;20618;-68
2023/09/20 10:44:29;;;;;;;4.63;1.97;;;47.50;1.00;;;;;;5008202;28;20657;-69
2023/09/20 10:46:58;;;;;;;3.40;1.30;;;46.70;1.00;;;;;;5005863;28;20932;-69
2023/09/20 10:49:49;;;;;;;4.97;1.60;;;45.80;1.00;;;;;;5006742;28;20460;-68
2023/09/20 10:52:57;;;;;;;3.83;1.60;;;45.20;1.00;;;;;;5007531;28;20458;-68
2023/09/20 10:55:36;;;;;;;4.70;1.60;;;44.80;1.00;;;;;;5005907;28;20530;-68
2023/09/20 10:58:03;;;;;;;4.30;1.60;;;44.50;1.00;;;;;;5007758;28;21212;-69
2023/09/20 11:00:34;;;;;;;3.70;1.50;;;43.90;1.00;;;;;;5007133;28;20464;-69
2023/09/20 11:03:04;;;;;;;4.07;1.70;;;43.60;1.00;;;;;;5007575;28;20559;-68
2023/09/20 11:05:32;;;;;;;5.63;1.67;;;43.60;1.00;;;;;;5005300;28;20470;-69
2023/09/20 11:08:03;;;;;;;3.70;1.43;;;43.60;1.00;;;;;;5007603;28;20552;-69
2023/09/20 11:10:30;;;;;;;4.30;1.50;;;43.20;1.00;;;;;;5007851;28;20468;-69
2023/09/20 11:12:58;;;;;;;3.83;1.57;;;42.60;1.00;;;;;;5007340;28;20456;-69
2023/09/20 11:15:25;;;;;;;3.87;1.60;;;42.20;1.00;;;;;;5006930;28;21105;-69
2023/09/20 11:17:51;;;;;;;3.27;1.27;;;41.70;1.00;;;;;;5003940;28;20959;-69
2023/09/20 11:20:18;;;;;;;5.77;1.70;;;41.20;1.00;;;;;;5007187;28;20460;-68
2023/09/20 11:22:45;;;;;;;3.70;1.30;;;40.60;1.00;;;;;;5007203;28;20594;-69
2023/09/20 11:25:12;;;;;;;3.43;1.50;;;40.10;1.00;;;;;;5002795;28;20475;-69
2023/09/20 11:27:39;;;;;;;4.77;1.57;;;39.50;1.00;;;;;;5008781;28;20460;-69
2023/09/20 11:30:10;;;;;;;4.30;1.57;;;39.00;1.00;;;;;;5007954;28;20466;-69
2023/09/20 11:32:39;;;;;;;4.37;1.33;;;38.50;1.00;;;;;;5002380;28;20555;-69
2023/09/20 11:35:07;;;;;;;3.73;1.47;;;38.10;1.00;;;;;;5007957;28;20484;-69
2023/09/20 11:37:35;;;;;;;3.50;1.30;;;37.60;1.00;;;;;;5008166;28;20456;-69
2023/09/20 11:40:04;;;;;;;4.17;1.57;;;36.70;1.00;;;;;;5007149;28;20535;-69
2023/09/20 11:42:32;;;;;;;5.73;1.60;;;35.30;1.00;;;;;;5006981;28;20591;-69
2023/09/20 11:45:02;;;;;;;3.30;0.97;;;34.20;1.00;;;;;;5008348;28;20838;-68
2023/09/20 11:47:33;;;;;;;3.50;1.60;;;33.50;1.00;;;;;;5008301;28;20480;-68
2023/09/20 11:50:01;;;;;;;3.60;1.40;;;33.00;1.00;;;;;;5009239;28;20464;-69
2023/09/20 11:52:28;;;;;;;4.30;1.50;;;32.60;1.00;;;;;;5008069;28;20464;-68
2023/09/20 11:54:58;;;;;;;4.90;3.57;;;32.10;1.00;;;;;;5002172;28;20492;-69
2023/09/20 11:57:26;;;;;;;3.67;1.23;;;31.80;1.00;;;;;;5020525;28;20464;-68
2023/09/20 11:59:54;;;;;;;6.33;1.93;;;31.50;1.00;;;;;;5013467;28;20548;-69
2023/09/20 12:02:21;;;;;;;4.50;1.30;;;31.30;1.00;;;;;;5005671;28;20471;-67
2023/09/20 12:04:52;;;;;;;3.43;1.50;;;31.00;1.00;;;;;;5001106;28;20490;-69
2023/09/20 12:07:19;;;;;;;7.70;1.80;;;30.80;1.00;;;;;;5008492;28;20467;-67
2023/09/20 12:09:46;;;;;;;4.13;1.67;;;30.50;1.00;;;;;;5009661;28;20466;-68
2023/09/20 12:12:12;;;;;;;3.70;1.63;;;30.10;1.00;;;;;;5009596;28;20463;-68
2023/09/20 12:14:39;;;;;;;4.70;1.67;;;29.70;1.00;;;;;;5011045;28;20994;-68
2023/09/20 12:17:07;;;;;;;6.70;2.80;;;29.50;1.00;;;;;;5012240;28;20475;-67
2023/09/20 12:19:34;;;;;;;6.03;1.97;;;29.20;1.00;;;;;;5012629;28;20471;-68
2023/09/20 12:22:02;;;;;;;5.43;1.70;;;28.90;1.00;;;;;;5011327;28;20488;-67
2023/09/20 12:24:29;;;;;;;4.23;1.33;;;28.80;1.00;;;;;;5012972;28;20515;-69
2023/09/20 12:26:56;;;;;;;5.33;2.07;;;28.60;1.00;;;;;;5029066;28;20462;-66
2023/09/20 12:29:23;;;;;;;4.40;1.60;;;28.40;1.00;;;;;;5015571;28;20460;-66
2023/09/20 12:31:49;;;;;;;7.10;1.73;;;28.10;1.00;;;;;;5008326;28;21026;-67
2023/09/20 12:34:17;;;;;;;3.83;1.47;;;28.00;1.00;;;;;;5006956;28;20479;-66
2023/09/20 12:36:45;;;;;;;5.30;1.70;;;27.70;1.00;;;;;;5009697;28;21062;-66
2023/09/20 12:39:13;;;;;;;3.80;1.67;;;27.60;1.00;;;;;;5010932;28;20456;-66
2023/09/20 12:41:42;;;;;;;4.20;1.70;;;27.50;1.00;;;;;;5007558;28;20970;-66
2023/09/20 12:44:09;;;;;;;3.40;1.40;;;27.30;1.00;;;;;;5010462;28;20484;-66
2023/09/20 12:46:36;;;;;;;5.90;1.57;;;27.10;1.00;;;;;;5009490;28;20833;-67
2023/09/20 12:49:04;;;;;;;3.93;1.27;;;27.10;1.00;;;;;;5010409;28;20547;-66
2023/09/20 12:51:31;;;;;;;4.83;1.53;;;27.00;1.00;;;;;;5009205;28;20548;-66
2023/09/20 12:53:58;;;;;;;3.77;1.53;;;27.00;1.00;;;;;;5008581;28;20673;-66
2023/09/20 12:56:27;;;;;;;4.07;1.33;;;27.00;1.00;;;;;;5007144;28;20467;-66
2023/09/20 12:58:56;;;;;;;4.60;1.77;;;26.80;1.00;;;;;;5010709;28;20471;-66
2023/09/20 13:01:22;;;;;;;4.10;1.70;;;26.70;1.00;;;;;;5004465;28;20467;-66
2023/09/20 13:03:51;;;;;;;4.40;1.70;;;26.50;1.00;;;;;;5005753;28;20481;-66
2023/09/20 13:06:18;;;;;;;4.80;1.80;;;26.40;1.00;;;;;;5007039;28;20500;-66
2023/09/20 13:08:45;;;;;;;3.93;1.40;;;26.40;1.00;;;;;;5001684;28;20459;-66
2023/09/20 13:11:14;;;;;;;4.40;1.57;;;26.20;1.00;;;;;;5009402;28;20518;-66
2023/09/20 13:13:42;;;;;;;3.80;1.27;;;26.10;1.00;;;;;;5006076;28;20476;-66
2023/09/20 13:16:10;;;;;;;3.53;1.20;;;26.10;1.00;;;;;;5001556;28;20797;-66
2023/09/20 13:18:38;;;;;;;4.10;1.57;;;26.10;1.00;;;;;;4999945;28;20515;-66
2023/09/20 13:21:05;;;;;;;4.07;2.10;;;26.00;1.00;;;;;;5003349;28;20538;-66
2023/09/20 13:23:31;;;;;;;7.23;1.77;;;26.00;1.00;;;;;;5003280;28;20498;-64
2023/09/20 13:26:00;;;;;;;5.80;1.83;;;25.90;1.00;;;;;;5000799;28;20490;-66
2023/09/20 13:28:27;;;;;;;5.87;1.83;;;25.80;1.00;;;;;;5009110;28;20572;-67
2023/09/20 13:30:55;;;;;;;4.53;1.30;;;25.80;1.00;;;;;;5009312;28;20546;-65
2023/09/20 13:33:22;;;;;;;4.83;1.60;;;25.70;1.00;;;;;;5005743;28;20480;-66
2023/09/20 13:35:48;;;;;;;6.30;2.03;;;25.70;1.00;;;;;;5009164;28;20947;-65
2023/09/20 13:38:15;;;;;;;4.10;1.40;;;25.70;1.00;;;;;;4994132;28;20448;-65